createdAt,value
2023-04-13T00:01:42.497Z,1.83
2023-04-13T00:04:09.955Z,1.90
2023-04-13T00:06:45.465Z,1.92
2023-04-13T00:09:12.892Z,1.70
2023-04-13T00:11:39.992Z,2.17
2023-04-13T00:14:13.470Z,2.03
2023-04-13T00:16:42.214Z,2.05
2023-04-13T00:19:16.553Z,2.08
2023-04-13T00:21:43.719Z,1.70
2023-04-13T00:24:10.981Z,2.25
2023-04-13T00:26:46.446Z,1.80
2023-04-13T00:29:14.156Z,2.08
2023-04-13T00:31:48.519Z,2.05
2023-04-13T00:34:16.048Z,2.05
2023-04-13T00:39:16.501Z,1.85
2023-04-13T00:41:43.636Z,2.40
2023-04-13T00:44:17.729Z,2.13
2023-04-13T00:46:46.572Z,2.20
2023-04-13T00:49:14.887Z,2.63
2023-04-13T00:51:51.448Z,2.65
2023-04-13T00:54:19.476Z,2.50
2023-04-13T00:56:53.450Z,2.80
2023-04-13T00:59:21.137Z,3.00
2023-04-13T01:02:02.615Z,2.97
2023-04-13T01:04:30.566Z,2.88
2023-04-13T01:07:11.586Z,3.33
2023-04-13T01:09:56.898Z,3.40
2023-04-13T01:12:45.523Z,3.40
2023-04-13T01:15:14.344Z,3.08
2023-04-13T01:17:43.964Z,2.92
2023-04-13T01:20:19.540Z,3.03
2023-04-13T01:22:55.875Z,3.60
2023-04-13T01:25:37.469Z,3.70
2023-04-13T01:28:18.755Z,4.03
2023-04-13T01:30:57.600Z,3.70
2023-04-13T01:33:25.536Z,4.10
2023-04-13T01:35:59.592Z,4.10
2023-04-13T01:38:26.771Z,4.30
2023-04-13T01:40:53.963Z,4.55
2023-04-13T01:43:28.573Z,4.35
2023-04-13T01:45:55.723Z,4.97
2023-04-13T01:48:34.536Z,4.93
2023-04-13T01:51:04.013Z,4.68
2023-04-13T01:53:32.959Z,4.80
2023-04-13T01:56:07.472Z,5.00
2023-04-13T01:58:35.328Z,5.10
2023-04-13T02:01:14.560Z,5.15
2023-04-13T02:03:43.366Z,5.07
2023-04-13T02:06:10.958Z,4.95
2023-04-13T02:08:44.481Z,4.88
2023-04-13T02:11:12.651Z,5.38
2023-04-13T02:13:46.539Z,5.10
2023-04-13T02:16:16.185Z,5.43
2023-04-13T02:18:43.643Z,5.82
2023-04-13T02:21:18.825Z,5.82
2023-04-13T02:23:46.346Z,5.75
2023-04-13T02:28:53.527Z,5.38
2023-04-13T02:31:29.643Z,6.80
2023-04-13T02:33:57.087Z,5.57
2023-04-13T02:36:24.863Z,6.05
2023-04-13T02:41:27.139Z,6.22
2023-04-13T02:44:01.043Z,6.53
2023-04-13T02:46:30.040Z,6.97
2023-04-13T02:48:59.496Z,7.20
2023-04-13T02:51:34.496Z,7.45
2023-04-13T02:54:05.054Z,6.88
2023-04-13T02:56:38.619Z,6.93
2023-04-13T02:59:06.378Z,6.88
2023-04-13T03:01:33.507Z,7.68
2023-04-13T03:04:07.462Z,7.78
2023-04-13T03:06:35.123Z,7.57
2023-04-13T03:09:08.491Z,7.68
2023-04-13T03:11:35.583Z,7.80
2023-04-13T03:14:03.069Z,8.45
2023-04-13T03:16:38.583Z,8.38
2023-04-13T03:19:06.065Z,8.48
2023-04-13T03:21:40.638Z,9.45
2023-04-13T03:24:08.708Z,8.73
2023-04-13T03:26:48.619Z,9.23
2023-04-13T03:29:16.130Z,9.50
2023-04-13T03:31:43.357Z,9.05
2023-04-13T03:34:17.509Z,9.82
2023-04-13T03:36:44.983Z,9.23
2023-04-13T03:39:18.763Z,10.63
2023-04-13T03:41:46.003Z,8.85
2023-04-13T03:44:19.629Z,9.40
2023-04-13T03:46:47.085Z,9.30
2023-04-13T03:51:47.520Z,10.52
2023-04-13T03:54:14.662Z,10.57
2023-04-13T03:56:48.523Z,10.73
2023-04-13T03:59:15.692Z,10.48
2023-04-13T04:01:42.770Z,11.60
2023-04-13T04:07:11.586Z,10.70
2023-04-13T04:09:45.426Z,11.50
2023-04-13T04:12:14.390Z,12.95
2023-04-13T04:14:48.464Z,14.15
2023-04-13T04:17:25.096Z,13.30
2023-04-13T04:19:58.571Z,14.65
2023-04-13T04:22:30.370Z,16.60
2023-04-13T04:25:08.459Z,15.43
2023-04-13T04:27:42.619Z,15.68
2023-04-13T04:30:25.486Z,14.13
2023-04-13T04:32:53.221Z,13.57
2023-04-13T04:35:39.462Z,16.08
2023-04-13T04:38:06.717Z,15.20
2023-04-13T04:40:36.853Z,15.75
2023-04-13T04:43:11.512Z,16.40
2023-04-13T04:45:41.788Z,17.38
2023-04-13T04:48:15.576Z,17.63
2023-04-13T04:50:44.852Z,16.35
2023-04-13T04:53:18.692Z,16.95
2023-04-13T04:55:46.572Z,19.02
2023-04-13T04:58:13.671Z,17.58
2023-04-13T05:00:47.589Z,18.70
2023-04-13T05:03:22.172Z,19.00
2023-04-13T05:05:55.586Z,15.85
2023-04-13T05:08:23.039Z,20.50
2023-04-13T05:10:50.136Z,19.38
2023-04-13T05:13:25.531Z,15.75
2023-04-13T05:15:52.735Z,16.38
2023-04-13T05:18:26.558Z,21.42
2023-04-13T05:20:53.737Z,18.80
2023-04-13T05:23:20.875Z,19.25
2023-04-13T05:25:54.669Z,20.23
2023-04-13T05:28:28.498Z,22.60
2023-04-13T05:31:07.738Z,21.90
2023-04-13T05:33:35.324Z,21.23
2023-04-13T05:38:36.618Z,21.80
2023-04-13T05:41:04.097Z,21.17
2023-04-13T05:43:37.732Z,22.48
2023-04-13T05:46:05.007Z,22.77
2023-04-13T05:48:34.251Z,21.60
2023-04-13T05:51:08.541Z,22.15
2023-04-13T05:53:35.785Z,23.45
2023-04-13T05:56:09.610Z,21.58
2023-04-13T05:58:37.176Z,22.90
2023-04-13T06:03:43.791Z,22.95
2023-04-13T06:06:11.039Z,21.13
2023-04-13T06:08:51.606Z,20.98
2023-04-13T06:11:32.498Z,21.90
2023-04-13T06:14:00.341Z,22.08
2023-04-13T06:16:27.581Z,21.10
2023-04-13T06:19:01.766Z,20.85
2023-04-13T06:21:30.155Z,19.92
2023-04-13T06:24:03.580Z,21.38
2023-04-13T06:26:37.580Z,19.58
2023-04-13T06:29:11.832Z,19.40
2023-04-13T06:31:38.964Z,15.02
2023-04-13T06:34:06.059Z,21.10
2023-04-13T06:36:39.655Z,9.57
2023-04-13T06:39:09.409Z,18.38
2023-04-13T06:41:36.912Z,21.23
2023-04-13T06:44:11.540Z,16.50
2023-04-13T06:46:38.831Z,17.95
2023-04-13T06:49:12.614Z,18.90
2023-04-13T06:51:40.055Z,20.00
2023-04-13T06:54:07.247Z,18.88
2023-04-13T06:56:40.598Z,20.52
2023-04-13T06:59:08.081Z,20.15
2023-04-13T07:01:42.721Z,18.90
2023-04-13T07:04:10.099Z,17.67
2023-04-13T07:06:37.332Z,16.15
2023-04-13T07:09:11.570Z,18.55
2023-04-13T07:11:38.828Z,16.73
2023-04-13T07:14:12.726Z,16.95
2023-04-13T07:16:39.925Z,16.08
2023-04-13T07:19:07.079Z,18.42
2023-04-13T07:21:40.677Z,15.77
2023-04-13T07:24:07.932Z,17.25
2023-04-13T07:26:48.694Z,17.10
2023-04-13T07:29:22.488Z,16.77
2023-04-13T07:31:56.621Z,13.60
2023-04-13T07:34:24.055Z,15.25
2023-04-13T07:36:51.458Z,16.52
2023-04-13T07:39:25.588Z,14.18
2023-04-13T07:41:52.843Z,17.42
2023-04-13T07:44:26.682Z,16.38
2023-04-13T07:46:56.440Z,18.60
2023-04-13T07:49:23.883Z,17.77
2023-04-13T07:51:59.640Z,13.40
2023-04-13T07:54:27.034Z,16.48
2023-04-13T07:57:02.616Z,15.75
2023-04-13T07:59:29.937Z,14.27
2023-04-13T08:01:57.750Z,15.55
2023-04-13T08:04:31.798Z,14.18
2023-04-13T08:07:03.195Z,14.35
2023-04-13T08:09:39.581Z,14.07
2023-04-13T08:12:07.364Z,13.20
2023-04-13T08:14:34.576Z,15.50
2023-04-13T08:17:10.545Z,14.80
2023-04-13T08:19:37.749Z,6.30
2023-04-13T08:22:11.620Z,9.85
2023-04-13T08:24:38.802Z,11.45
2023-04-13T08:27:20.653Z,12.32
2023-04-13T08:30:01.555Z,10.82
2023-04-13T08:32:35.700Z,10.18
2023-04-13T08:35:07.021Z,12.55
2023-04-13T08:37:34.927Z,10.63
2023-04-13T08:40:08.653Z,10.48
2023-04-13T08:42:36.602Z,12.15
2023-04-13T08:45:10.619Z,12.18
2023-04-13T08:47:37.831Z,11.55
2023-04-13T08:50:11.603Z,12.68
2023-04-13T08:52:40.197Z,11.18
2023-04-13T08:55:07.458Z,11.50
2023-04-13T08:57:41.585Z,10.27
2023-04-13T09:00:13.651Z,11.02
2023-04-13T09:03:02.841Z,10.95
2023-04-13T09:05:31.584Z,9.70
2023-04-13T09:08:08.638Z,9.65
2023-04-13T09:10:42.581Z,10.85
2023-04-13T09:13:10.026Z,9.68
2023-04-13T09:15:44.496Z,8.30
2023-04-13T09:18:12.808Z,9.13
2023-04-13T09:20:47.524Z,11.07
2023-04-13T09:23:17.967Z,10.63
2023-04-13T09:25:53.651Z,11.75
2023-04-13T09:28:27.673Z,11.23
2023-04-13T09:31:14.634Z,10.68
2023-04-13T09:33:49.143Z,9.90
2023-04-13T09:36:24.776Z,9.85
2023-04-13T09:39:02.923Z,8.70
2023-04-13T09:41:37.242Z,9.27
2023-04-13T09:44:34.945Z,9.40
2023-04-13T09:47:03.241Z,10.50
2023-04-13T09:49:46.619Z,9.43
2023-04-13T09:52:24.133Z,9.73
2023-04-13T09:55:01.651Z,8.60
2023-04-13T09:57:29.778Z,9.65
2023-04-13T10:00:00.487Z,8.25
2023-04-13T10:02:34.775Z,8.45
2023-04-13T10:05:02.432Z,9.07
2023-04-13T10:10:04.980Z,8.70
2023-04-13T10:12:33.282Z,8.48
2023-04-13T10:15:14.705Z,8.63
2023-04-13T10:17:56.995Z,8.93
2023-04-13T10:20:31.744Z,7.35
2023-04-13T10:22:58.972Z,7.57
2023-04-13T10:25:33.878Z,8.13
2023-04-13T10:28:08.749Z,8.07
2023-04-13T10:30:42.585Z,7.70
2023-04-13T10:33:19.603Z,7.95
2023-04-13T10:36:03.101Z,8.15
2023-04-13T10:38:36.607Z,7.75
2023-04-13T10:41:10.541Z,7.30
2023-04-13T10:43:37.993Z,6.45
2023-04-13T10:46:15.563Z,7.43
2023-04-13T10:48:43.588Z,6.82
2023-04-13T10:51:17.708Z,7.53
2023-04-13T10:53:45.133Z,5.97
2023-04-13T10:56:25.581Z,6.22
2023-04-13T10:58:54.169Z,6.65
2023-04-13T11:01:21.421Z,6.05
2023-04-13T11:04:04.458Z,6.20
2023-04-13T11:06:37.021Z,6.40
2023-04-13T11:09:16.003Z,5.95
2023-04-13T11:11:44.193Z,5.57
2023-04-13T11:14:24.654Z,5.30
2023-04-13T11:19:31.758Z,5.13
2023-04-13T11:21:59.669Z,5.32
2023-04-13T11:24:27.519Z,5.40
2023-04-13T11:27:01.628Z,4.75
2023-04-13T11:29:35.645Z,4.85
2023-04-13T11:32:10.685Z,4.97
2023-04-13T11:34:37.966Z,5.38
2023-04-13T11:37:06.107Z,5.45
2023-04-13T11:39:42.636Z,4.55
2023-04-13T11:42:16.594Z,4.82
2023-04-13T11:44:45.760Z,5.45
2023-04-13T11:47:22.680Z,5.45
2023-04-13T11:49:50.530Z,5.45
2023-04-13T11:52:17.917Z,5.10
2023-04-13T11:54:51.642Z,5.22
2023-04-13T11:57:18.957Z,5.15
2023-04-13T11:59:54.706Z,5.43
2023-04-13T12:05:02.079Z,5.15
2023-04-13T12:07:30.032Z,4.35
2023-04-13T12:10:06.367Z,5.25
2023-04-13T12:15:22.992Z,4.75
2023-04-13T12:17:57.972Z,4.70
2023-04-13T12:20:43.780Z,5.00
2023-04-13T12:26:32.058Z,3.97
2023-04-13T12:29:08.668Z,4.60
2023-04-13T12:31:44.477Z,4.53
2023-04-13T12:34:18.748Z,3.75
2023-04-13T12:36:46.030Z,4.53
2023-04-13T12:39:13.229Z,4.78
2023-04-13T12:41:46.757Z,4.10
2023-04-13T12:44:14.758Z,4.40
2023-04-13T12:46:48.768Z,3.42
2023-04-13T12:49:16.079Z,3.97
2023-04-13T12:51:43.315Z,3.83
2023-04-13T12:54:19.709Z,4.03
2023-04-13T12:56:46.866Z,4.25
2023-04-13T12:59:20.796Z,4.32
2023-04-13T13:01:48.146Z,4.32
2023-04-13T13:04:15.392Z,3.25
2023-04-13T13:06:48.741Z,3.38
2023-04-13T13:09:20.685Z,4.15
2023-04-13T13:11:47.828Z,3.70
2023-04-13T13:14:33.764Z,4.00
2023-04-13T13:17:02.869Z,3.70
2023-04-13T13:19:36.691Z,4.35
2023-04-13T13:22:04.103Z,4.65
2023-04-13T13:24:31.260Z,4.00
2023-04-13T13:27:58.652Z,4.03
2023-04-13T13:30:14.363Z,4.03
2023-04-13T13:32:47.681Z,3.90
2023-04-13T13:35:15.500Z,4.03
2023-04-13T13:37:42.766Z,3.70
2023-04-13T13:40:19.715Z,3.83
2023-04-13T13:42:51.236Z,3.85
2023-04-13T13:45:25.699Z,2.42
2023-04-13T13:47:53.712Z,3.05
2023-04-13T13:50:28.866Z,2.78
2023-04-13T13:53:03.882Z,3.40
2023-04-13T13:55:38.690Z,3.17
2023-04-13T13:58:05.907Z,3.17
2023-04-13T14:00:33.132Z,3.45
2023-04-13T14:03:07.908Z,4.07
2023-04-13T14:05:35.309Z,3.00
2023-04-13T14:08:09.046Z,3.58
2023-04-13T14:10:36.554Z,3.67
2023-04-13T14:13:03.934Z,3.90
2023-04-13T14:15:37.789Z,3.35
2023-04-13T14:18:09.772Z,4.50
2023-04-13T14:20:47.699Z,3.88
2023-04-13T14:23:14.943Z,4.05
2023-04-13T14:25:42.120Z,3.60
2023-04-13T14:28:15.671Z,3.63
2023-04-13T14:30:43.079Z,3.63
2023-04-13T14:33:16.850Z,3.70
2023-04-13T14:35:44.175Z,4.00
2023-04-13T14:38:11.533Z,4.55
2023-04-13T14:40:45.682Z,4.55
2023-04-13T14:43:12.918Z,3.60
2023-04-13T14:45:46.713Z,3.22
2023-04-13T14:48:14.077Z,4.38
2023-04-13T14:50:41.242Z,3.53
2023-04-13T14:53:20.716Z,4.30
2023-04-13T14:55:47.976Z,4.22
2023-04-13T14:58:22.890Z,3.83
2023-04-13T15:00:50.178Z,4.50
2023-04-13T15:03:22.438Z,4.65
2023-04-13T15:06:02.761Z,5.20
2023-04-13T15:08:31.627Z,4.45
2023-04-13T15:11:05.832Z,3.55
2023-04-13T15:13:33.031Z,4.20
2023-04-13T15:16:13.853Z,3.70
2023-04-13T15:18:41.000Z,3.83
2023-04-13T15:21:08.084Z,4.68
2023-04-13T15:23:41.797Z,4.05
2023-04-13T15:26:08.968Z,4.45
2023-04-13T15:28:44.834Z,4.10
2023-04-13T15:31:18.831Z,4.20
2023-04-13T15:33:52.722Z,4.07
2023-04-13T15:36:19.950Z,3.97
2023-04-13T15:38:47.072Z,3.92
2023-04-13T15:41:20.759Z,3.85
2023-04-13T15:43:47.987Z,3.72
2023-04-13T15:46:21.761Z,3.80
2023-04-13T15:48:50.360Z,4.03
2023-04-13T15:51:24.779Z,3.80
2023-04-13T15:53:51.972Z,3.33
2023-04-13T15:56:25.821Z,2.90
2023-04-13T15:58:52.999Z,3.17
2023-04-13T16:01:20.496Z,3.33
2023-04-13T16:06:20.976Z,3.25
2023-04-13T16:08:54.761Z,3.60
2023-04-13T16:11:21.999Z,4.07
2023-04-13T16:13:50.344Z,3.08
2023-04-13T16:16:24.883Z,3.45
2023-04-13T16:18:52.517Z,3.40
2023-04-13T16:23:54.349Z,3.55
2023-04-13T16:29:03.898Z,3.83
2023-04-13T16:31:37.899Z,3.83
2023-04-13T16:34:22.152Z,3.60
2023-04-13T16:36:58.958Z,3.58
2023-04-13T16:39:26.383Z,4.65
2023-04-13T16:41:53.628Z,3.72
2023-04-13T16:44:27.759Z,4.53
2023-04-13T16:46:55.006Z,4.05
2023-04-13T16:49:35.752Z,4.40
2023-04-13T16:52:03.145Z,4.68
2023-04-13T16:54:30.895Z,4.97
2023-04-13T16:57:04.710Z,4.20
2023-04-13T16:59:32.355Z,4.45
2023-04-13T17:04:35.006Z,4.55
2023-04-13T17:07:02.322Z,4.05
2023-04-13T17:09:35.871Z,4.63
2023-04-13T17:12:03.316Z,3.85
2023-04-13T17:14:30.459Z,4.00
2023-04-13T17:17:03.856Z,5.07
2023-04-13T17:19:31.385Z,4.00
2023-04-13T17:24:32.797Z,4.03
2023-04-13T17:27:00.010Z,4.50
2023-04-13T17:29:42.963Z,4.00
2023-04-13T17:32:16.926Z,4.97
2023-04-13T17:34:50.898Z,4.55
2023-04-13T17:37:18.168Z,4.45
2023-04-13T17:39:50.742Z,4.38
2023-04-13T17:42:24.809Z,4.10
2023-04-13T17:44:52.030Z,4.85
2023-04-13T17:47:25.773Z,4.93
2023-04-13T17:49:53.358Z,4.40
2023-04-13T17:54:54.078Z,4.78
2023-04-13T17:57:21.227Z,4.60
2023-04-13T17:59:54.848Z,5.13
2023-04-13T18:02:22.194Z,4.70
2023-04-13T18:04:55.901Z,4.55
2023-04-13T18:07:23.104Z,4.22
2023-04-13T18:09:50.441Z,4.93
2023-04-13T18:12:23.795Z,5.03
2023-04-13T18:14:50.956Z,4.95
2023-04-13T18:17:24.866Z,4.60
2023-04-13T18:20:01.914Z,4.63
2023-04-13T18:22:35.759Z,5.40
2023-04-13T18:25:09.767Z,4.60
2023-04-13T18:27:49.797Z,4.70
2023-04-13T18:30:23.790Z,4.85
2023-04-13T18:32:57.946Z,5.32
2023-04-13T18:35:25.218Z,5.05
2023-04-13T18:37:52.899Z,5.00
2023-04-13T18:40:26.915Z,5.50
2023-04-13T18:42:54.058Z,5.57
2023-04-13T18:45:27.824Z,5.30
2023-04-13T18:50:22.114Z,6.00
2023-04-13T18:52:55.705Z,5.28
2023-04-13T18:55:24.788Z,5.40
2023-04-13T18:57:59.018Z,5.90
2023-04-13T19:00:26.108Z,5.95
2023-04-13T19:02:53.519Z,5.82
2023-04-13T19:05:29.818Z,5.57
2023-04-13T19:07:58.644Z,5.30
2023-04-13T19:10:26.463Z,5.82
2023-04-13T19:15:27.264Z,6.07
2023-04-13T19:18:00.923Z,5.63
2023-04-13T19:20:28.309Z,5.82
2023-04-13T19:22:55.412Z,6.00
2023-04-13T19:25:28.809Z,5.50
2023-04-13T19:28:15.763Z,5.72
2023-04-13T19:30:49.933Z,5.85
2023-04-13T19:33:17.148Z,5.70
2023-04-13T19:35:44.298Z,5.88
2023-04-13T19:38:17.787Z,5.60
2023-04-13T19:40:45.164Z,5.45
2023-04-13T19:43:12.272Z,5.30
2023-04-13T19:45:46.803Z,6.32
2023-04-13T19:48:14.874Z,5.65
2023-04-13T19:50:49.029Z,6.15
2023-04-13T19:53:21.637Z,5.53
2023-04-13T19:55:57.899Z,5.68
2023-04-13T19:58:31.782Z,5.22
2023-04-13T20:01:00.999Z,6.60
2023-04-13T20:03:34.872Z,6.30
2023-04-13T20:06:03.239Z,5.47
2023-04-13T20:08:30.394Z,5.90
2023-04-13T20:11:03.730Z,6.28
2023-04-13T20:13:31.012Z,5.63
2023-04-13T20:16:04.792Z,6.22
2023-04-13T20:18:32.047Z,5.78
2023-04-13T20:21:02.367Z,6.88
2023-04-13T20:23:37.797Z,7.30
2023-04-13T20:26:05.401Z,7.13
2023-04-13T20:31:15.235Z,7.20
2023-04-13T20:33:48.856Z,6.55
2023-04-13T20:36:17.473Z,7.00
2023-04-13T20:38:45.124Z,6.90
2023-04-13T20:41:20.810Z,6.78
2023-04-13T20:43:49.860Z,6.57
2023-04-13T20:46:31.918Z,7.53
2023-04-13T20:48:59.560Z,6.90
2023-04-13T20:54:02.542Z,7.55
2023-04-13T20:56:30.282Z,7.40
2023-04-13T20:59:05.010Z,7.47
2023-04-13T21:01:32.184Z,7.60
2023-04-13T21:03:59.648Z,7.70
2023-04-13T21:09:05.196Z,7.35
2023-04-13T21:11:38.897Z,7.65
2023-04-13T21:14:06.183Z,8.25
2023-04-13T21:16:33.358Z,7.70
2023-04-13T21:19:07.897Z,7.50
2023-04-13T21:21:36.210Z,7.60
2023-04-13T21:24:09.915Z,7.78
2023-04-13T21:26:37.192Z,7.75
2023-04-13T21:29:17.933Z,8.00
2023-04-13T21:31:51.899Z,7.82
2023-04-13T21:34:25.836Z,8.27
2023-04-13T21:36:59.754Z,8.32
2023-04-13T21:39:33.878Z,8.02
2023-04-13T21:42:01.124Z,9.27
2023-04-13T21:44:30.206Z,9.15
2023-04-13T21:47:04.942Z,9.18
2023-04-13T21:49:32.124Z,8.90
2023-04-13T21:52:05.993Z,8.57
2023-04-13T21:54:33.254Z,8.63
2023-04-13T21:57:00.344Z,9.45
2023-04-13T21:59:34.828Z,9.52
2023-04-13T22:02:02.200Z,9.90
2023-04-13T22:04:35.986Z,9.10
2023-04-13T22:07:03.346Z,8.50
2023-04-13T22:09:30.962Z,8.95
2023-04-13T22:14:32.053Z,8.85
2023-04-13T22:17:06.024Z,9.00
2023-04-13T22:19:33.210Z,9.60
2023-04-13T22:22:00.288Z,8.43
2023-04-13T22:24:33.954Z,10.00
2023-04-13T22:27:04.337Z,9.52
2023-04-13T22:29:45.901Z,9.18
2023-04-13T22:32:13.096Z,10.00
2023-04-13T22:34:46.933Z,10.50
2023-04-13T22:37:22.363Z,9.82
2023-04-13T22:39:55.864Z,9.00
2023-04-13T22:42:23.105Z,9.52
2023-04-13T22:44:50.205Z,10.32
2023-04-13T22:47:28.943Z,11.27
2023-04-13T22:49:56.292Z,10.25
2023-04-13T22:52:23.400Z,10.90
2023-04-13T22:54:56.841Z,10.07
2023-04-13T22:57:24.042Z,10.30
2023-04-13T22:59:57.839Z,10.55
2023-04-13T23:02:25.090Z,9.13
2023-04-13T23:04:52.514Z,9.20
2023-04-13T23:07:26.834Z,10.00
2023-04-13T23:09:54.092Z,9.95
2023-04-13T23:12:27.884Z,10.00
2023-04-13T23:14:54.983Z,9.52
2023-04-13T23:17:22.319Z,10.40
2023-04-13T23:19:55.877Z,10.73
2023-04-13T23:22:23.323Z,10.18
2023-04-13T23:24:50.552Z,10.35
2023-04-13T23:27:24.830Z,11.30
2023-04-13T23:30:21.160Z,9.75
2023-04-13T23:32:48.441Z,11.27
2023-04-13T23:35:27.808Z,11.25
2023-04-13T23:37:54.944Z,12.18
2023-04-13T23:40:22.160Z,12.27
2023-04-13T23:42:55.890Z,13.15
2023-04-13T23:45:24.828Z,13.35
2023-04-13T23:47:58.996Z,10.88
2023-04-13T23:50:26.457Z,13.32
2023-04-13T23:52:54.559Z,14.10
2023-04-13T23:55:27.860Z,13.07
2023-04-13T23:57:55.029Z,14.25
